Time;durP1;ratioP1;P1;durP2;ratioP2;P2;SDS_P1;SDS_P2;PMS_P1;PMS_P2;Temp;Humidity;BMP_temperature;BMP_pressure;BME280_temperature;BME280_humidity;BME280_pressure;Samples;Min_cycle;Max_cycle;Signal;HPM_P1;HPM_P2
2023/04/15 00:01:58;;;;;;;14.95;5.43;;;;;;;6.74;100.00;100662.75;5207744;28;20053;-73
2023/04/15 00:04:30;;;;;;;11.48;4.85;;;;;;;6.79;100.00;100665.81;5225280;28;20025;-73
2023/04/15 00:07:01;;;;;;;13.80;5.78;;;;;;;6.85;100.00;100665.22;5224815;28;20051;-73
2023/04/15 00:09:32;;;;;;;10.68;4.80;;;;;;;6.90;100.00;100672.78;5224880;28;20017;-73
2023/04/15 00:12:03;;;;;;;12.95;5.38;;;;;;;6.92;100.00;100676.13;5225228;28;20558;-73
2023/04/15 00:14:35;;;;;;;19.30;5.38;;;;;;;6.93;100.00;100672.50;5225182;28;20021;-73
2023/04/15 00:17:06;;;;;;;12.93;4.88;;;;;;;6.93;100.00;100676.00;5224800;28;20052;-73
2023/04/15 00:19:37;;;;;;;9.65;5.05;;;;;;;6.97;100.00;100676.53;5224370;28;20045;-73
2023/04/15 00:22:08;;;;;;;13.32;4.85;;;;;;;6.96;100.00;100672.19;5207172;28;20116;-73
2023/04/15 00:24:38;;;;;;;12.70;5.43;;;;;;;6.99;100.00;100672.75;5225025;28;20029;-73
2023/04/15 00:27:09;;;;;;;11.02;5.25;;;;;;;7.09;100.00;100669.19;5224589;28;20087;-73
2023/04/15 00:29:40;;;;;;;13.88;5.72;;;;;;;7.14;100.00;100670.44;5207029;28;20112;-73
2023/04/15 00:32:10;;;;;;;9.80;5.25;;;;;;;7.12;100.00;100675.06;5206475;28;20024;-73
2023/04/15 00:34:41;;;;;;;10.68;5.10;;;;;;;7.14;100.00;100670.44;5207184;28;20553;-73
2023/04/15 00:37:12;;;;;;;12.85;5.35;;;;;;;7.16;100.00;100662.28;5211489;28;20074;-73
2023/04/15 00:39:42;;;;;;;15.93;5.38;;;;;;;7.16;100.00;100672.94;5224506;28;20017;-73
2023/04/15 00:42:14;;;;;;;10.98;5.43;;;;;;;7.17;100.00;100659.44;5224547;28;20316;-73
2023/04/15 00:44:44;;;;;;;13.82;5.82;;;;;;;7.17;100.00;100664.78;5206226;28;20508;-73
2023/04/15 00:47:16;;;;;;;13.63;4.95;;;;;;;7.16;100.00;100665.78;5224746;28;20029;-74
2023/04/15 00:49:46;;;;;;;9.63;5.30;;;;;;;7.17;100.00;100667.44;5206537;28;20107;-74
2023/04/15 00:52:17;;;;;;;13.38;5.50;;;;;;;7.19;100.00;100676.16;5226445;28;20128;-73
2023/04/15 00:54:50;;;;;;;17.15;6.13;;;;;;;7.20;100.00;100661.81;5225108;28;20020;-73
2023/04/15 00:57:21;;;;;;;11.27;5.22;;;;;;;7.23;100.00;100668.72;5223825;28;20532;-73
2023/04/15 00:59:53;;;;;;;14.63;5.68;;;;;;;7.24;100.00;100667.72;5224510;28;20025;-73
2023/04/15 01:02:24;;;;;;;11.10;5.03;;;;;;;7.26;100.00;100668.38;5224688;28;20067;-73
2023/04/15 01:04:58;;;;;;;10.07;5.70;;;;;;;7.26;100.00;100671.91;5225039;28;20124;-74
2023/04/15 01:07:28;;;;;;;14.23;5.75;;;;;;;7.29;100.00;100667.28;5223931;28;20074;-73
2023/04/15 01:09:59;;;;;;;11.98;5.22;;;;;;;7.32;100.00;100666.94;5224752;28;20033;-73
2023/04/15 01:12:31;;;;;;;13.70;6.13;;;;;;;7.31;100.00;100666.13;5224333;28;20033;-73
2023/04/15 01:15:01;;;;;;;10.13;5.45;;;;;;;7.32;100.00;100666.94;5224871;28;20024;-73
2023/04/15 01:17:32;;;;;;;10.15;5.25;;;;;;;7.32;100.00;100669.63;5224398;28;20112;-74
2023/04/15 01:20:04;;;;;;;13.50;5.88;;;;;;;7.34;100.00;100673.00;5206364;28;20078;-74
2023/04/15 01:22:34;;;;;;;10.85;5.45;;;;;;;7.35;100.00;100672.00;5211349;28;20386;-74
2023/04/15 01:25:10;;;;;;;13.23;6.65;;;;;;;7.32;100.00;100667.78;5206504;28;20032;-73
2023/04/15 01:27:41;;;;;;;11.90;5.32;;;;;;;7.32;100.00;100667.78;5223946;28;20025;-73
2023/04/15 01:30:11;;;;;;;14.55;5.28;;;;;;;7.31;100.00;100671.44;5224014;28;20052;-73
2023/04/15 01:32:42;;;;;;;12.60;5.53;;;;;;;7.31;100.00;100667.94;5224470;28;20087;-73
2023/04/15 01:35:13;;;;;;;12.27;5.68;;;;;;;7.32;100.00;100661.63;5224281;28;20028;-73
2023/04/15 01:37:45;;;;;;;14.48;5.95;;;;;;;7.33;100.00;100671.28;5224186;28;20028;-73
2023/04/15 01:40:15;;;;;;;11.68;5.53;;;;;;;7.35;100.00;100664.00;5223959;28;20021;-73
2023/04/15 01:42:46;;;;;;;10.57;5.93;;;;;;;7.37;100.00;100667.34;5223152;28;20029;-74
2023/04/15 01:45:17;;;;;;;15.48;5.63;;;;;;;7.34;100.00;100662.31;5206806;28;20017;-74
2023/04/15 01:47:48;;;;;;;11.63;4.80;;;;;;;7.33;100.00;100668.63;5205898;28;20032;-73
2023/04/15 01:50:19;;;;;;;8.88;4.65;;;;;;;7.31;100.00;100659.94;5206344;28;20029;-73
2023/04/15 01:52:50;;;;;;;11.38;5.50;;;;;;;7.30;100.00;100664.44;5223964;28;20020;-73
2023/04/15 01:55:20;;;;;;;11.93;5.90;;;;;;;7.27;100.00;100670.06;5206472;28;20040;-73
2023/04/15 01:57:51;;;;;;;12.57;5.57;;;;;;;7.24;100.00;100671.22;5223242;28;20052;-73
2023/04/15 02:00:22;;;;;;;13.40;5.53;;;;;;;7.23;100.00;100674.88;5206236;28;20052;-73
2023/04/15 02:02:52;;;;;;;12.38;5.28;;;;;;;7.26;100.00;100676.41;5223723;28;20155;-73
2023/04/15 02:05:24;;;;;;;9.40;5.35;;;;;;;7.25;100.00;100680.06;5223855;28;20035;-74
2023/04/15 02:07:54;;;;;;;10.88;5.30;;;;;;;7.25;100.00;100675.56;5222992;28;20440;-73
2023/04/15 02:10:25;;;;;;;9.98;5.80;;;;;;;7.23;100.00;100677.53;5223631;28;20025;-73
2023/04/15 02:12:56;;;;;;;12.25;5.38;;;;;;;7.23;100.00;100674.88;5223806;28;20075;-74
2023/04/15 02:15:26;;;;;;;12.48;6.47;;;;;;;7.22;100.00;100675.00;5223909;28;20029;-74
2023/04/15 02:17:58;;;;;;;14.32;6.30;;;;;;;7.22;100.00;100678.50;5223366;28;20028;-73
2023/04/15 02:20:29;;;;;;;15.60;5.97;;;;;;;7.24;100.00;100670.38;5223269;28;20032;-73
2023/04/15 02:23:00;;;;;;;17.13;7.50;;;;;;;7.26;100.00;100673.72;5223769;28;20028;-73
2023/04/15 02:25:31;;;;;;;11.15;5.70;;;;;;;7.27;100.00;100681.56;5223815;28;20079;-74
2023/04/15 02:28:01;;;;;;;14.07;6.75;;;;;;;7.30;100.00;100685.78;5223382;28;20525;-74
2023/04/15 02:30:33;;;;;;;11.70;5.70;;;;;;;7.30;100.00;100691.13;5223668;28;20123;-74
2023/04/15 02:33:03;;;;;;;14.35;6.57;;;;;;;7.31;100.00;100697.31;5205426;28;20029;-74
2023/04/15 02:35:35;;;;;;;20.30;6.63;;;;;;;7.31;100.00;100690.13;5206277;28;20051;-74
2023/04/15 02:38:05;;;;;;;28.10;8.25;;;;;;;7.31;100.00;100684.78;5223199;28;20546;-73
2023/04/15 02:40:36;;;;;;;18.27;7.13;;;;;;;7.33;100.00;100695.31;5223502;28;20020;-73
2023/04/15 02:43:06;;;;;;;15.93;6.60;;;;;;;7.35;100.00;100688.00;5218909;28;20035;-73
2023/04/15 02:45:37;;;;;;;14.55;6.85;;;;;;;7.35;100.00;100693.34;5223349;28;20119;-74
2023/04/15 02:48:08;;;;;;;19.27;7.38;;;;;;;7.34;100.00;100697.84;5223358;28;20106;-73
2023/04/15 02:50:39;;;;;;;10.73;5.40;;;;;;;7.36;100.00;100695.84;5223545;28;20078;-74
2023/04/15 02:53:10;;;;;;;14.15;5.45;;;;;;;7.35;100.00;100698.69;5226399;28;20040;-73
2023/04/15 02:55:41;;;;;;;14.93;5.40;;;;;;;7.38;100.00;100709.91;5209886;28;20381;-73
2023/04/15 02:58:12;;;;;;;14.68;5.72;;;;;;;7.41;100.00;100706.09;5227717;28;20032;-73
2023/04/15 03:00:42;;;;;;;14.82;5.82;;;;;;;7.44;100.00;100711.16;5227655;28;20040;-74
2023/04/15 03:03:13;;;;;;;16.05;5.80;;;;;;;7.42;100.00;100718.44;5227564;28;20466;-73
2023/04/15 03:05:44;;;;;;;15.55;6.15;;;;;;;7.42;100.00;100716.59;5209309;28;20096;-73
2023/04/15 03:08:15;;;;;;;15.23;5.68;;;;;;;7.39;100.00;100727.59;5226905;28;20112;-73
2023/04/15 03:10:46;;;;;;;16.38;5.32;;;;;;;7.39;100.00;100729.44;5226991;28;20397;-73
2023/04/15 03:13:17;;;;;;;12.27;5.72;;;;;;;7.36;100.00;100725.22;5227288;28;20501;-73
2023/04/15 03:15:47;;;;;;;10.80;5.72;;;;;;;7.37;100.00;100728.72;5222133;28;20018;-73
2023/04/15 03:18:18;;;;;;;14.60;6.20;;;;;;;7.37;100.00;100729.56;5215073;28;20056;-73
2023/04/15 03:20:48;;;;;;;13.55;5.57;;;;;;;7.36;100.00;100730.56;5207551;28;20497;-73
2023/04/15 03:23:18;;;;;;;14.25;5.90;;;;;;;7.36;100.00;100725.22;5189542;28;20029;-73
2023/04/15 03:25:49;;;;;;;12.35;5.78;;;;;;;7.36;100.00;100721.72;5213248;28;20490;-73
2023/04/15 03:28:19;;;;;;;13.40;6.50;;;;;;;7.35;100.00;100726.22;5189376;28;20029;-73
2023/04/15 03:30:50;;;;;;;14.63;6.22;;;;;;;7.34;100.00;100740.56;5206357;28;20025;-73
2023/04/15 03:33:20;;;;;;;14.10;5.97;;;;;;;7.32;100.00;100741.66;5206239;28;20037;-73
2023/04/15 03:35:52;;;;;;;15.63;5.50;;;;;;;7.28;100.00;100741.16;5206582;28;20017;-73
2023/04/15 03:38:22;;;;;;;16.33;6.00;;;;;;;7.27;100.00;100742.94;5206617;28;20036;-73
2023/04/15 03:40:53;;;;;;;14.65;6.50;;;;;;;7.25;100.00;100746.75;5213719;28;20017;-73
2023/04/15 03:43:23;;;;;;;15.50;6.30;;;;;;;7.24;100.00;100747.75;5221969;28;20079;-73
2023/04/15 03:45:54;;;;;;;16.58;6.75;;;;;;;7.22;100.00;100749.72;5226031;28;20040;-73
2023/04/15 03:48:24;;;;;;;12.82;6.03;;;;;;;7.22;100.00;100755.06;5208162;28;20025;-73
2023/04/15 03:50:58;;;;;;;11.40;6.65;;;;;;;7.20;100.00;100755.22;5225757;28;20071;-73
2023/04/15 03:53:28;;;;;;;11.38;5.97;;;;;;;7.15;100.00;100761.97;5208453;28;20031;-73
2023/04/15 03:55:59;;;;;;;10.18;5.47;;;;;;;7.11;100.00;100758.75;5225931;28;20025;-73
2023/04/15 03:58:29;;;;;;;17.25;5.85;;;;;;;7.22;100.00;100752.38;5207630;28;20056;-73
2023/04/15 04:01:00;;;;;;;13.25;6.25;;;;;;;7.31;100.00;100754.19;5225602;28;20067;-73
2023/04/15 04:03:30;;;;;;;16.88;5.85;;;;;;;7.37;100.00;100753.56;5226202;28;20025;-73
2023/04/15 04:06:01;;;;;;;13.40;5.85;;;;;;;7.26;100.00;100756.44;5209298;28;20098;-73
2023/04/15 04:08:31;;;;;;;15.80;6.28;;;;;;;7.24;100.00;100763.78;5226818;28;20025;-73
2023/04/15 04:11:02;;;;;;;13.75;5.55;;;;;;;7.19;100.00;100760.69;5225343;28;20025;-73
2023/04/15 04:13:32;;;;;;;17.40;6.03;;;;;;;7.16;100.00;100763.66;5226537;28;20033;-73
2023/04/15 04:16:03;;;;;;;13.07;5.70;;;;;;;7.10;100.00;100780.25;5225590;28;20045;-73
2023/04/15 04:18:34;;;;;;;13.05;5.80;;;;;;;7.06;100.00;100790.34;5225479;28;20033;-73
2023/04/15 04:21:04;;;;;;;23.10;8.68;;;;;;;7.06;100.00;100792.19;5207751;28;20032;-72
2023/04/15 04:23:35;;;;;;;15.57;7.07;;;;;;;7.05;100.00;100787.84;5225373;28;20063;-73
2023/04/15 04:26:06;;;;;;;13.65;6.68;;;;;;;7.12;100.00;100781.75;5225633;28;20025;-73
2023/04/15 04:28:38;;;;;;;10.85;6.35;;;;;;;7.18;100.00;100785.72;5207326;28;20021;-73
2023/04/15 04:31:08;;;;;;;11.82;6.55;;;;;;;7.20;100.00;100789.91;5225379;28;20108;-73
2023/04/15 04:33:39;;;;;;;11.02;6.10;;;;;;;7.21;100.00;100788.91;5225431;28;20113;-73
2023/04/15 04:36:09;;;;;;;15.68;6.35;;;;;;;7.23;100.00;100778.94;5207260;28;20027;-73
2023/04/15 04:38:40;;;;;;;15.55;5.85;;;;;;;7.19;100.00;100790.06;5225122;28;20078;-73
2023/04/15 04:41:10;;;;;;;18.65;6.65;;;;;;;7.21;100.00;100788.06;5224850;28;20036;-73
2023/04/15 04:43:41;;;;;;;25.05;6.70;;;;;;;7.26;100.00;100788.47;5225179;28;20027;-73
2023/04/15 04:46:12;;;;;;;17.27;6.45;;;;;;;7.22;100.00;100801.25;5224747;28;20090;-73
2023/04/15 04:48:42;;;;;;;18.35;6.53;;;;;;;7.14;100.00;100808.31;5206973;28;20548;-73
2023/04/15 04:51:13;;;;;;;19.08;5.95;;;;;;;7.15;100.00;100810.00;5224522;28;20024;-73
2023/04/15 04:53:43;;;;;;;14.52;6.57;;;;;;;7.22;100.00;100811.09;5224929;28;20033;-73
2023/04/15 04:56:14;;;;;;;15.10;6.35;;;;;;;7.22;100.00;100808.41;5207074;28;20103;-73
2023/04/15 04:58:45;;;;;;;14.77;6.10;;;;;;;7.30;100.00;100816.53;5206607;28;20083;-73
2023/04/15 05:01:16;;;;;;;16.65;5.78;;;;;;;7.23;100.00;100808.28;5224578;28;20021;-73
2023/04/15 05:03:46;;;;;;;17.17;6.13;;;;;;;7.21;100.00;100825.41;5224742;28;20027;-73
2023/04/15 05:06:17;;;;;;;13.20;6.60;;;;;;;7.21;100.00;100836.09;5224641;28;20025;-73
2023/04/15 05:08:47;;;;;;;15.77;6.68;;;;;;;7.20;100.00;100851.25;5224330;28;20369;-73
2023/04/15 05:11:18;;;;;;;16.27;6.97;;;;;;;7.22;100.00;100856.44;5224538;28;20527;-73
2023/04/15 05:13:48;;;;;;;12.50;6.13;;;;;;;7.23;100.00;100856.31;5206473;28;20032;-73
2023/04/15 05:16:19;;;;;;;14.75;6.32;;;;;;;7.25;100.00;100853.50;5224330;28;20027;-73
2023/04/15 05:18:50;;;;;;;15.07;6.25;;;;;;;7.28;100.00;100858.56;5223596;28;20028;-72
2023/04/15 05:21:21;;;;;;;21.08;9.52;;;;;;;7.32;100.00;100862.59;5224166;28;20017;-73
2023/04/15 05:23:51;;;;;;;14.68;6.55;;;;;;;7.35;100.00;100867.66;5223800;28;20024;-73
2023/04/15 05:26:23;;;;;;;16.83;7.05;;;;;;;7.40;100.00;100867.22;5223903;28;20047;-73
2023/04/15 05:28:53;;;;;;;17.88;7.30;;;;;;;7.42;100.00;100876.75;5206222;28;20032;-73
2023/04/15 05:31:24;;;;;;;15.98;7.35;;;;;;;7.46;100.00;100872.81;5223918;28;20017;-73
2023/04/15 05:33:54;;;;;;;18.77;7.45;;;;;;;7.51;100.00;100880.38;5224331;28;20021;-73
2023/04/15 05:36:26;;;;;;;17.63;7.40;;;;;;;7.53;100.00;100884.63;5223393;28;20060;-73
2023/04/15 05:38:57;;;;;;;19.70;7.63;;;;;;;7.57;100.00;100885.13;5224411;28;20406;-73
2023/04/15 05:41:27;;;;;;;17.38;8.32;;;;;;;7.61;100.00;100893.72;5223508;28;20017;-73
2023/04/15 05:43:58;;;;;;;18.48;7.70;;;;;;;7.64;100.00;100898.78;5206341;28;20039;-73
2023/04/15 05:46:28;;;;;;;18.10;8.88;;;;;;;7.66;100.00;100899.44;5223627;28;20082;-73
2023/04/15 05:48:59;;;;;;;19.45;8.43;;;;;;;7.68;100.00;100914.34;5223554;28;20033;-73
2023/04/15 05:51:30;;;;;;;16.38;8.15;;;;;;;7.75;100.00;100919.94;5189716;28;20024;-73
2023/04/15 05:54:00;;;;;;;17.42;8.07;;;;;;;7.79;100.00;100922.19;5223895;28;20028;-73
2023/04/15 05:56:31;;;;;;;16.65;7.25;;;;;;;7.83;100.00;100917.41;5192796;28;20029;-73
2023/04/15 05:59:02;;;;;;;15.50;8.60;;;;;;;7.89;100.00;100923.97;5223466;28;20021;-73
2023/04/15 06:01:34;;;;;;;17.05;8.75;;;;;;;7.92;100.00;100921.84;5223853;28;20583;-73
2023/04/15 06:04:05;;;;;;;21.50;8.60;;;;;;;7.98;100.00;100931.94;5223564;28;20181;-73
2023/04/15 06:06:35;;;;;;;17.90;8.77;;;;;;;8.00;100.00;100937.97;5223580;28;20024;-73
2023/04/15 06:09:06;;;;;;;17.05;8.60;;;;;;;8.03;100.00;100943.03;5223390;28;20131;-73
2023/04/15 06:11:37;;;;;;;21.98;9.05;;;;;;;8.07;100.00;100948.91;5205736;28;20025;-72
2023/04/15 06:14:10;;;;;;;25.15;9.45;;;;;;;8.13;100.00;100955.47;5223697;28;20067;-73
2023/04/15 06:16:41;;;;;;;17.88;9.90;;;;;;;8.18;100.00;100958.56;5223695;28;20025;-73
2023/04/15 06:19:11;;;;;;;22.20;9.65;;;;;;;8.22;100.00;100963.47;5223430;28;20021;-73
2023/04/15 06:21:43;;;;;;;21.23;9.02;;;;;;;8.29;100.00;100966.41;5223385;28;20024;-73
2023/04/15 06:24:13;;;;;;;18.38;8.98;;;;;;;8.36;100.00;100972.00;5205568;28;20086;-73
2023/04/15 06:26:44;;;;;;;24.50;10.20;;;;;;;8.41;100.00;100970.56;5223034;28;20021;-72
2023/04/15 06:29:15;;;;;;;24.38;10.77;;;;;;;8.54;100.00;100968.41;5208130;28;20457;-73
2023/04/15 06:31:47;;;;;;;21.73;9.30;;;;;;;8.63;100.00;100963.97;5227387;28;20031;-72
2023/04/15 06:34:17;;;;;;;27.30;10.27;;;;;;;8.68;100.00;100963.50;5227691;28;20067;-73
2023/04/15 06:36:48;;;;;;;16.88;9.80;;;;;;;8.76;100.00;100969.78;5227120;28;20033;-73
2023/04/15 06:39:18;;;;;;;22.52;9.80;;;;;;;8.85;100.00;100970.72;5210036;28;20021;-73
2023/04/15 06:41:49;;;;;;;21.35;10.95;;;;;;;8.98;100.00;100981.03;5222291;28;20053;-73
2023/04/15 06:44:20;;;;;;;19.65;10.15;;;;;;;9.13;100.00;100981.34;5227629;28;20041;-73
2023/04/15 06:46:50;;;;;;;21.25;10.82;;;;;;;9.32;100.00;100986.53;5227147;28;20385;-73
2023/04/15 06:49:21;;;;;;;26.17;10.73;;;;;;;9.46;100.00;100988.66;5226712;28;20610;-73
2023/04/15 06:51:51;;;;;;;17.95;10.20;;;;;;;9.64;100.00;100995.81;5209340;28;20020;-73
2023/04/15 06:54:22;;;;;;;20.38;10.85;;;;;;;9.82;100.00;100994.78;5227247;28;20449;-73
2023/04/15 06:56:52;;;;;;;23.15;11.82;;;;;;;9.94;100.00;100992.69;5226795;28;20033;-73
2023/04/15 06:59:24;;;;;;;23.10;11.68;;;;;;;10.10;100.00;101011.53;5227134;28;20025;-73
2023/04/15 07:01:54;;;;;;;23.58;12.30;;;;;;;10.32;100.00;101015.53;5227053;28;20520;-73
2023/04/15 07:04:25;;;;;;;22.63;11.98;;;;;;;10.58;100.00;101012.78;5227133;28;20021;-73
2023/04/15 07:06:55;;;;;;;24.40;12.02;;;;;;;11.21;100.00;101026.72;5226723;28;20482;-73
2023/04/15 07:09:26;;;;;;;24.77;12.38;;;;;;;11.67;100.00;101031.41;5226868;28;20033;-73
2023/04/15 07:11:56;;;;;;;20.45;11.07;;;;;;;12.32;100.00;101027.78;5226785;28;20033;-73
2023/04/15 07:14:28;;;;;;;21.08;11.60;;;;;;;13.08;100.00;101026.25;5213820;28;20060;-73
2023/04/15 07:16:58;;;;;;;23.02;11.05;;;;;;;13.84;100.00;101037.13;5231261;28;20068;-73
2023/04/15 07:19:29;;;;;;;21.67;12.00;;;;;;;14.60;100.00;101030.59;5230031;28;20052;-73
2023/04/15 07:21:59;;;;;;;16.58;10.27;;;;;;;15.18;100.00;101036.06;5227980;28;20056;-73
2023/04/15 07:24:30;;;;;;;17.10;9.32;;;;;;;15.08;100.00;101043.63;5227981;28;20497;-74
2023/04/15 07:27:00;;;;;;;14.27;8.88;;;;;;;14.39;100.00;101046.69;5227133;28;20565;-73
2023/04/15 07:29:31;;;;;;;15.32;9.13;;;;;;;14.39;100.00;101043.97;5227269;28;20103;-73
2023/04/15 07:32:02;;;;;;;19.58;8.95;;;;;;;14.27;100.00;101054.41;5227008;28;20033;-74
2023/04/15 07:34:32;;;;;;;20.17;8.95;;;;;;;14.62;100.00;101050.16;5227104;28;20632;-73
2023/04/15 07:37:03;;;;;;;16.20;9.02;;;;;;;14.81;100.00;101050.56;5225926;28;20032;-73
2023/04/15 07:39:33;;;;;;;15.13;8.68;;;;;;;15.03;100.00;101055.84;5226190;28;20104;-74
2023/04/15 07:42:04;;;;;;;17.83;8.43;;;;;;;15.59;100.00;101057.03;5225744;28;20025;-74
2023/04/15 07:44:34;;;;;;;15.32;8.68;;;;;;;15.86;100.00;101058.97;5226629;28;20720;-74
2023/04/15 07:47:05;;;;;;;17.25;8.70;;;;;;;16.27;100.00;101067.19;5226056;28;20441;-74
2023/04/15 07:49:35;;;;;;;14.50;8.60;;;;;;;16.17;100.00;101074.00;5225945;28;20108;-74
2023/04/15 07:52:06;;;;;;;15.15;8.13;;;;;;;16.05;100.00;101079.09;5226367;28;20039;-74
2023/04/15 07:54:36;;;;;;;12.55;8.15;;;;;;;16.14;100.00;101067.09;5226227;28;20021;-74
2023/04/15 07:57:07;;;;;;;14.95;8.73;;;;;;;16.68;100.00;101079.94;5225541;28;20033;-73
2023/04/15 07:59:38;;;;;;;15.18;8.23;;;;;;;16.40;100.00;101077.25;5226102;28;20436;-73
2023/04/15 08:02:09;;;;;;;15.82;8.07;;;;;;;16.35;100.00;101087.84;5225516;28;20036;-73
2023/04/15 08:04:40;;;;;;;14.23;8.02;;;;;;;16.33;100.00;101095.34;5226223;28;20092;-73
2023/04/15 08:07:10;;;;;;;14.48;8.00;;;;;;;16.38;100.00;101098.28;5225850;28;20115;-74
2023/04/15 08:09:41;;;;;;;17.38;8.95;;;;;;;17.01;100.00;101100.94;5191426;28;20112;-73
2023/04/15 08:12:12;;;;;;;17.45;8.57;;;;;;;17.48;100.00;101101.94;5225515;28;20040;-73
2023/04/15 08:14:42;;;;;;;12.45;8.77;;;;;;;17.76;100.00;101108.06;5208034;28;20025;-74
2023/04/15 08:17:13;;;;;;;19.10;8.30;;;;;;;17.96;100.00;101116.22;5225086;28;20013;-74
2023/04/15 08:19:43;;;;;;;13.93;8.48;;;;;;;17.89;100.00;101111.84;5225587;28;20396;-73
2023/04/15 08:22:14;;;;;;;14.52;9.10;;;;;;;18.03;100.00;101108.91;5225425;28;20025;-73
2023/04/15 08:24:45;;;;;;;16.88;8.32;;;;;;;17.93;100.00;101123.94;5208087;28;20024;-74
2023/04/15 08:27:16;;;;;;;11.95;7.95;;;;;;;17.69;100.00;101122.63;5224506;28;20266;-74
2023/04/15 08:29:46;;;;;;;14.27;7.30;;;;;;;17.18;100.00;101129.38;5225326;28;20029;-73
2023/04/15 08:32:17;;;;;;;18.58;7.60;;;;;;;16.90;100.00;101134.88;5207932;28;20056;-74
2023/04/15 08:34:48;;;;;;;12.00;7.57;;;;;;;16.52;100.00;101132.56;5225394;28;20028;-74
2023/04/15 08:37:18;;;;;;;13.73;8.07;;;;;;;16.41;100.00;101138.50;5225030;28;20021;-73
2023/04/15 08:39:49;;;;;;;11.32;7.80;;;;;;;16.95;100.00;101142.41;5224555;28;20474;-74
2023/04/15 08:42:26;;;;;;;17.20;9.05;;;;;;;17.28;100.00;101145.28;5224628;28;20032;-73
2023/04/15 08:45:00;;;;;;;13.88;8.02;;;;;;;17.44;100.00;101152.19;5207176;28;20029;-74
2023/04/15 08:47:32;;;;;;;14.05;7.50;;;;;;;17.80;100.00;101160.88;5225305;28;20036;-74
2023/04/15 08:50:03;;;;;;;19.75;7.93;;;;;;;18.41;100.00;101162.56;5224239;28;20022;-74
2023/04/15 08:52:34;;;;;;;15.15;7.68;;;;;;;18.07;100.00;101166.31;5224908;28;20083;-74
2023/04/15 08:55:08;;;;;;;10.00;7.18;;;;;;;17.49;100.00;101172.25;5225042;28;20731;-74
2023/04/15 08:57:38;;;;;;;16.42;8.38;;;;;;;17.56;100.00;101180.41;5224383;28;20536;-74
2023/04/15 09:00:09;;;;;;;15.10;7.85;;;;;;;17.98;100.00;101192.84;5224699;28;20033;-74
2023/04/15 09:02:41;;;;;;;11.52;6.47;;;;;;;18.41;100.00;101188.91;5224416;28;20584;-74
2023/04/15 09:05:12;;;;;;;8.70;6.63;;;;;;;18.48;100.00;101196.00;5224855;28;20025;-74
2023/04/15 09:07:42;;;;;;;13.20;7.25;;;;;;;18.67;100.00;101205.16;5206367;28;20050;-73
2023/04/15 09:10:13;;;;;;;10.27;6.80;;;;;;;18.71;100.00;101200.19;5224459;28;20112;-74
2023/04/15 09:12:43;;;;;;;9.52;6.93;;;;;;;18.61;100.00;101212.28;5224240;28;20086;-73
2023/04/15 09:15:15;;;;;;;18.77;7.53;;;;;;;18.61;100.00;101209.56;5224035;28;20035;-74
2023/04/15 09:17:46;;;;;;;15.23;7.80;;;;;;;18.91;100.00;101208.31;5223970;28;20060;-74
2023/04/15 09:20:18;;;;;;;11.75;7.45;;;;;;;18.65;100.00;101215.44;5223955;28;20377;-74
2023/04/15 09:22:49;;;;;;;12.85;7.47;;;;;;;18.64;100.00;101225.47;5224337;28;20021;-73
2023/04/15 09:25:20;;;;;;;10.27;7.07;;;;;;;18.85;100.00;101232.56;5206273;28;20029;-73
2023/04/15 09:28:11;;;;;;;10.23;7.22;;;;;;;18.71;100.00;101236.34;5223937;28;20054;-73
2023/04/15 09:30:45;;;;;;;10.23;6.30;;;;;;;18.69;100.00;101238.47;5224525;28;20498;-74
2023/04/15 09:33:16;;;;;;;9.05;6.10;;;;;;;18.00;100.00;101252.38;5224039;28;20017;-74
2023/04/15 09:35:56;;;;;;;10.73;6.38;;;;;;;18.28;100.00;101247.63;5223803;28;20032;-73
2023/04/15 09:38:27;;;;;;;8.35;5.50;;;;;;;18.44;100.00;101250.97;5223720;28;20036;-74
2023/04/15 09:40:58;;;;;;;9.25;5.55;;;;;;;18.63;100.00;101253.69;5223499;28;20009;-74
2023/04/15 09:43:46;;;;;;;6.07;4.53;;;;;;;17.99;96.26;101262.38;5219552;28;20033;-74
2023/04/15 09:46:17;;;;;;;10.88;4.22;;;;;;;17.67;100.00;101272.06;5223511;28;20485;-74
2023/04/15 09:49:07;;;;;;;11.25;4.38;;;;;;;18.07;100.00;101277.63;5223688;28;20031;-73
2023/04/15 09:51:37;;;;;;;9.32;4.10;;;;;;;18.12;100.00;101275.13;5223405;28;20540;-73
2023/04/15 09:54:08;;;;;;;7.82;4.13;;;;;;;17.98;100.00;101279.72;5223720;28;20025;-73
2023/04/15 09:56:41;;;;;;;7.30;4.53;;;;;;;17.81;93.22;101295.50;5223062;28;20028;-73
2023/04/15 09:59:11;;;;;;;8.60;4.40;;;;;;;17.23;94.94;101286.03;5205869;28;20047;-73
2023/04/15 10:01:42;;;;;;;9.60;4.97;;;;;;;17.38;100.00;101285.91;5223821;28;20017;-74
2023/04/15 10:04:13;;;;;;;6.80;5.18;;;;;;;17.64;99.50;101290.63;5223507;28;20031;-73
2023/04/15 10:06:44;;;;;;;10.82;5.60;;;;;;;18.08;100.00;101287.47;5223432;28;20028;-73
2023/04/15 10:09:14;;;;;;;8.80;5.20;;;;;;;18.05;95.84;101285.16;5223278;28;20482;-74
2023/04/15 10:11:48;;;;;;;7.75;4.78;;;;;;;18.02;99.27;101297.28;5223571;28;20032;-73
2023/04/15 10:14:19;;;;;;;8.85;4.97;;;;;;;17.93;90.85;101316.66;5205982;28;20021;-74
2023/04/15 10:16:52;;;;;;;12.13;4.85;;;;;;;17.13;79.60;101318.91;5223108;28;20444;-74
2023/04/15 10:19:26;;;;;;;10.88;5.10;;;;;;;17.22;93.68;101311.44;5223700;28;20032;-74
2023/04/15 10:21:58;;;;;;;8.75;4.90;;;;;;;17.18;85.40;101319.16;5222933;28;20143;-74
2023/04/15 10:24:30;;;;;;;11.27;5.13;;;;;;;17.20;81.17;101319.78;5223762;28;20036;-74
2023/04/15 10:27:03;;;;;;;11.18;4.80;;;;;;;17.21;95.72;101321.44;5223533;28;20024;-73
2023/04/15 10:29:33;;;;;;;9.07;5.10;;;;;;;17.44;88.86;101318.47;5207591;28;20086;-74
2023/04/15 10:32:04;;;;;;;7.63;5.40;;;;;;;17.63;91.94;101322.34;5223616;28;20064;-74
2023/04/15 10:34:36;;;;;;;10.48;5.45;;;;;;;17.53;83.26;101330.00;5224314;28;20037;-74
2023/04/15 10:37:10;;;;;;;11.35;6.63;;;;;;;17.52;98.50;101322.88;5223296;28;20025;-74
2023/04/15 10:39:43;;;;;;;8.77;6.05;;;;;;;17.54;100.00;101331.69;5223582;28;20051;-74
2023/04/15 10:42:16;;;;;;;10.50;6.20;;;;;;;17.49;94.44;101326.03;5223227;28;20043;-73
2023/04/15 10:44:50;;;;;;;8.65;5.72;;;;;;;16.78;95.75;101326.97;5223353;28;20048;-74
2023/04/15 10:47:21;;;;;;;9.10;5.53;;;;;;;17.34;100.00;101334.28;5223115;28;20025;-74
2023/04/15 10:49:57;;;;;;;12.75;6.35;;;;;;;17.73;100.00;101339.13;5223380;28;20369;-74
2023/04/15 10:52:28;;;;;;;9.00;4.63;;;;;;;17.64;88.40;101339.47;5223218;28;20047;-74
2023/04/15 10:55:09;;;;;;;10.50;5.20;;;;;;;17.92;92.67;101345.66;5210046;28;20028;-74
2023/04/15 10:57:41;;;;;;;6.97;4.13;;;;;;;18.26;91.51;101347.44;5222761;28;20104;-74
2023/04/15 11:00:14;;;;;;;8.02;5.10;;;;;;;18.59;89.15;101347.53;5223267;28;20049;-74
2023/04/15 11:02:46;;;;;;;8.95;4.15;;;;;;;18.49;90.89;101355.25;5223401;28;20108;-74
2023/04/15 11:05:18;;;;;;;7.15;4.72;;;;;;;18.41;87.79;101341.00;5223301;28;20017;-74
2023/04/15 11:07:50;;;;;;;7.18;3.80;;;;;;;18.32;84.27;101352.09;5204958;28;20585;-74
2023/04/15 11:10:39;;;;;;;9.43;3.20;;;;;;;17.86;70.58;101358.16;5223177;28;20074;-74
2023/04/15 11:13:10;;;;;;;7.07;2.97;;;;;;;17.92;70.97;101359.22;5212281;28;20032;-74
2023/04/15 11:15:44;;;;;;;7.88;3.60;;;;;;;18.00;74.70;101359.06;5206990;28;20090;-74
2023/04/15 11:18:29;;;;;;;10.15;3.92;;;;;;;18.03;70.31;101364.09;5216776;28;20020;-74
2023/04/15 11:21:03;;;;;;;4.75;3.30;;;;;;;18.26;73.16;101366.47;5226643;28;20481;-74
2023/04/15 11:23:37;;;;;;;12.50;3.90;;;;;;;18.31;69.53;101368.56;5226973;28;20029;-74
2023/04/15 11:26:10;;;;;;;7.22;3.97;;;;;;;18.52;78.25;101362.13;5209047;28;20486;-74
2023/04/15 11:28:43;;;;;;;5.60;3.78;;;;;;;18.49;76.26;101363.41;5226322;28;20021;-74
2023/04/15 11:31:16;;;;;;;7.68;3.90;;;;;;;18.49;71.18;101374.28;5226833;28;20436;-74
2023/04/15 11:34:03;;;;;;;5.93;4.00;;;;;;;18.57;74.11;101367.78;5226950;28;20020;-74
2023/04/15 11:36:34;;;;;;;6.50;4.30;;;;;;;18.61;76.59;101372.59;5229293;28;20043;-74